createdAt,value
2023-07-24T00:00:46.842Z,99523.91
2023-07-24T00:02:21.511Z,99516.72
2023-07-24T00:03:55.810Z,99518.91
2023-07-24T00:05:28.045Z,99512.78
2023-07-24T00:07:02.430Z,99515.94
2023-07-24T00:08:34.627Z,99523.34
2023-07-24T00:10:08.536Z,99521.25
2023-07-24T00:11:40.794Z,99518.34
2023-07-24T00:13:14.273Z,99502.97
2023-07-24T00:14:46.731Z,99518.47
2023-07-24T00:16:20.056Z,99516.06
2023-07-24T00:17:53.704Z,99485.66
2023-07-24T00:19:27.376Z,99516.06
2023-07-24T00:21:00.518Z,99512.81
2023-07-24T00:22:33.004Z,99520.81
2023-07-24T00:24:06.666Z,99513.28
2023-07-24T00:25:39.054Z,99519.75
2023-07-24T00:27:12.269Z,99517.09
2023-07-24T00:28:46.510Z,99513.53
2023-07-24T00:30:20.299Z,99511.66
2023-07-24T00:31:53.748Z,99514.53
2023-07-24T00:33:27.408Z,99508.88
2023-07-24T00:35:01.001Z,99498.34
2023-07-24T00:36:33.454Z,99502.03
2023-07-24T00:38:07.044Z,99510.59
2023-07-24T00:39:40.254Z,99504.00
2023-07-24T00:41:12.393Z,99507.94
2023-07-24T00:42:49.576Z,99494.06
2023-07-24T00:44:21.987Z,99507.94
2023-07-24T00:45:56.874Z,99509.56
2023-07-24T00:47:30.325Z,99498.59
2023-07-24T00:49:06.034Z,99504.47
2023-07-24T00:50:40.374Z,99508.16
2023-07-24T00:52:13.823Z,99502.16
2023-07-24T00:53:48.949Z,99504.81
2023-07-24T00:55:21.434Z,99505.53
2023-07-24T00:56:55.203Z,99500.06
2023-07-24T00:58:27.806Z,99512.31
2023-07-24T01:00:05.064Z,99511.38
2023-07-24T01:01:39.092Z,99504.22
2023-07-24T01:03:13.856Z,99508.72
2023-07-24T01:04:48.512Z,99504.19
2023-07-24T01:06:21.701Z,99505.47
2023-07-24T01:07:54.149Z,99503.28
2023-07-24T01:09:27.819Z,99504.78
2023-07-24T01:11:05.170Z,99511.47
2023-07-24T01:12:45.125Z,99508.84
2023-07-24T01:14:24.366Z,99499.47
2023-07-24T01:16:09.110Z,99510.47
2023-07-24T01:17:46.779Z,99508.38
2023-07-24T01:19:39.060Z,99502.59
2023-07-24T01:21:17.523Z,99513.91
2023-07-24T01:23:02.662Z,99501.22
2023-07-24T01:24:44.052Z,99509.38
2023-07-24T01:26:18.683Z,99508.28
2023-07-24T01:27:51.916Z,99517.97
2023-07-24T01:30:58.750Z,99507.75
2023-07-24T01:32:32.717Z,99511.00
2023-07-24T01:34:04.960Z,99514.22
2023-07-24T01:35:40.420Z,99516.78
2023-07-24T01:37:14.222Z,99514.56
2023-07-24T01:38:49.683Z,99515.00
2023-07-24T01:40:23.306Z,99518.56
2023-07-24T01:41:58.442Z,99518.13
2023-07-24T01:43:33.284Z,99516.97
2023-07-24T01:45:07.013Z,99519.03
2023-07-24T01:46:40.557Z,99516.81
2023-07-24T01:48:12.878Z,99515.75
2023-07-24T01:49:46.129Z,99517.97
2023-07-24T01:51:18.635Z,99518.56
2023-07-24T01:52:52.025Z,99520.97
2023-07-24T01:54:24.284Z,99519.13
2023-07-24T01:55:57.959Z,99522.25
2023-07-24T01:57:31.720Z,99516.00
2023-07-24T01:59:04.980Z,99519.91
2023-07-24T02:00:37.285Z,99520.38
2023-07-24T02:02:10.896Z,99512.19
2023-07-24T02:03:44.300Z,99506.53
2023-07-24T02:05:17.920Z,99510.88
2023-07-24T02:06:51.283Z,99498.94
2023-07-24T02:08:24.805Z,99504.56
2023-07-24T02:09:57.345Z,99506.53
2023-07-24T02:11:30.673Z,99512.50
2023-07-24T02:13:04.816Z,99511.09
2023-07-24T02:14:38.034Z,99510.91
2023-07-24T02:16:10.481Z,99517.84
2023-07-24T02:17:44.558Z,99517.44
2023-07-24T02:19:16.905Z,99516.41
2023-07-24T02:20:53.569Z,99512.28
2023-07-24T02:22:27.142Z,99513.38
2023-07-24T02:24:00.748Z,99521.53
2023-07-24T02:25:33.965Z,99520.94
2023-07-24T02:27:08.635Z,99521.91
2023-07-24T02:28:43.549Z,99527.00
2023-07-24T02:30:16.796Z,99531.88
2023-07-24T02:31:50.073Z,99530.19
2023-07-24T02:33:22.459Z,99523.84
2023-07-24T02:34:56.089Z,99527.69
2023-07-24T02:36:28.677Z,99521.78
2023-07-24T02:38:02.081Z,99525.84
2023-07-24T02:39:34.591Z,99524.00
2023-07-24T02:41:07.796Z,99521.56
2023-07-24T02:42:41.787Z,99516.56
2023-07-24T02:44:16.686Z,99504.69
2023-07-24T02:45:49.868Z,99520.34
2023-07-24T02:47:22.613Z,99516.28
2023-07-24T02:48:56.329Z,99514.88
2023-07-24T02:50:29.383Z,99516.38
2023-07-24T02:52:02.702Z,99517.41
2023-07-24T02:53:35.614Z,99516.94
2023-07-24T02:55:09.659Z,99520.56
2023-07-24T02:56:41.870Z,99520.34
2023-07-24T02:58:15.814Z,99505.50
2023-07-24T02:59:49.506Z,99501.44
2023-07-24T03:01:22.731Z,99516.41
2023-07-24T03:02:55.099Z,99515.97
2023-07-24T03:04:28.750Z,99519.66
2023-07-24T03:06:02.882Z,99504.44
2023-07-24T03:07:35.104Z,99510.50
2023-07-24T03:09:08.405Z,99522.31
2023-07-24T03:10:42.692Z,99518.97
2023-07-24T03:12:16.173Z,99520.38
2023-07-24T03:13:49.539Z,99529.75
2023-07-24T03:15:24.993Z,99521.78
2023-07-24T03:16:57.268Z,99520.03
2023-07-24T03:18:30.818Z,99528.03
2023-07-24T03:20:10.595Z,99518.44
2023-07-24T03:21:43.862Z,99513.97
2023-07-24T03:23:16.426Z,99507.69
2023-07-24T03:24:49.748Z,99513.56
2023-07-24T03:26:21.973Z,99510.34
2023-07-24T03:27:55.216Z,99520.94
2023-07-24T03:29:27.471Z,99518.53
2023-07-24T03:31:02.585Z,99519.53
2023-07-24T03:32:34.931Z,99529.34
2023-07-24T03:34:08.927Z,99529.34
2023-07-24T03:35:42.299Z,99508.06
2023-07-24T03:37:15.678Z,99522.41
2023-07-24T03:38:47.921Z,99512.84
2023-07-24T03:40:21.067Z,99523.22
2023-07-24T03:41:54.504Z,99524.84
2023-07-24T03:43:26.942Z,99520.94
2023-07-24T03:45:00.279Z,99521.53
2023-07-24T03:46:36.973Z,99527.41
2023-07-24T03:48:10.704Z,99518.44
2023-07-24T03:49:43.373Z,99515.97
2023-07-24T03:51:16.566Z,99504.56
2023-07-24T03:52:48.803Z,99524.69
2023-07-24T03:54:22.444Z,99516.25
2023-07-24T03:55:54.924Z,99514.84
2023-07-24T03:57:30.921Z,99506.13
2023-07-24T03:59:03.307Z,99516.66
2023-07-24T04:00:36.726Z,99517.72
2023-07-24T04:02:10.924Z,99519.34
2023-07-24T04:03:44.299Z,99506.63
2023-07-24T04:05:17.015Z,99511.84
2023-07-24T04:06:50.394Z,99510.94
2023-07-24T04:08:23.818Z,99504.16
2023-07-24T04:09:56.016Z,99507.31
2023-07-24T04:11:29.489Z,99510.47
2023-07-24T04:13:01.588Z,99503.53
2023-07-24T04:14:35.155Z,99514.16
2023-07-24T04:16:07.396Z,99522.69
2023-07-24T04:17:43.002Z,99520.19
2023-07-24T04:19:15.291Z,99518.69
2023-07-24T04:20:49.066Z,99519.28
2023-07-24T04:22:21.233Z,99515.13
2023-07-24T04:23:54.452Z,99506.66
2023-07-24T04:25:26.705Z,99504.03
2023-07-24T04:27:00.399Z,99512.03
2023-07-24T04:28:32.731Z,99507.34
2023-07-24T04:30:06.682Z,99506.88
2023-07-24T04:31:38.955Z,99508.28
2023-07-24T04:33:14.004Z,99512.91
2023-07-24T04:34:46.206Z,99498.00
2023-07-24T04:36:20.724Z,99515.56
2023-07-24T04:37:53.978Z,99513.38
2023-07-24T04:39:26.440Z,99523.22
2023-07-24T04:40:59.598Z,99517.94
2023-07-24T04:42:33.509Z,99515.84
2023-07-24T04:44:05.764Z,99524.69
2023-07-24T04:45:39.442Z,99515.06
2023-07-24T04:47:11.635Z,99527.03
2023-07-24T04:48:46.520Z,99525.25
2023-07-24T04:50:18.821Z,99512.75
2023-07-24T04:51:52.701Z,99517.94
2023-07-24T04:53:25.220Z,99521.16
2023-07-24T04:54:58.703Z,99524.09
2023-07-24T04:56:31.305Z,99501.94
2023-07-24T04:58:05.427Z,99518.69
2023-07-24T04:59:37.833Z,99519.88
2023-07-24T05:01:11.156Z,99523.63
2023-07-24T05:02:43.511Z,99516.78
2023-07-24T05:04:18.667Z,99518.53
2023-07-24T05:05:56.126Z,99511.66
2023-07-24T05:07:29.489Z,99505.00
2023-07-24T05:09:01.680Z,99500.22
2023-07-24T05:10:37.704Z,99501.84
2023-07-24T05:12:11.036Z,99493.03
2023-07-24T05:13:44.225Z,99502.16
2023-07-24T05:15:18.371Z,99504.31
2023-07-24T09:32:51.035Z,99304.28
2023-07-24T09:34:50.989Z,99295.06
2023-07-24T09:36:46.316Z,99297.66
2023-07-24T09:38:33.182Z,99298.03
2023-07-24T09:40:19.028Z,99287.38
2023-07-24T09:42:12.217Z,99288.53
2023-07-24T09:44:00.726Z,99293.16
2023-07-24T09:45:45.944Z,99283.41
2023-07-24T09:47:55.935Z,99281.97
2023-07-24T09:49:41.455Z,99278.63
2023-07-24T09:51:34.341Z,99275.78
2023-07-24T09:53:30.266Z,99273.47
2023-07-24T09:55:19.983Z,99272.59
2023-07-24T09:57:19.856Z,99258.09
2023-07-24T09:59:09.287Z,99265.19
2023-07-24T10:00:49.678Z,99258.34
2023-07-24T10:02:37.212Z,99259.66
2023-07-24T10:04:17.237Z,99256.56
2023-07-24T10:06:06.623Z,99249.31
2023-07-24T10:07:52.365Z,99250.50
2023-07-24T10:09:40.031Z,99251.97
2023-07-24T10:11:28.821Z,99247.88
2023-07-24T10:13:18.538Z,99253.81
2023-07-24T10:15:05.060Z,99252.84
2023-07-24T10:16:51.100Z,99244.88
2023-07-24T10:18:38.445Z,99247.03
2023-07-24T10:20:32.039Z,99237.66
2023-07-24T10:22:20.031Z,99237.72
2023-07-24T10:24:06.439Z,99243.06
2023-07-24T10:26:01.019Z,99239.38
2023-07-24T10:27:51.086Z,99240.50
2023-07-24T10:29:37.213Z,99236.00
2023-07-24T10:31:34.377Z,99240.78
2023-07-24T10:33:22.673Z,99231.31
2023-07-24T10:35:09.239Z,99222.16
2023-07-24T10:36:56.068Z,99227.34
2023-07-24T10:38:45.336Z,99216.50
2023-07-24T10:40:38.102Z,99220.03
2023-07-24T10:42:26.125Z,99221.53
2023-07-24T10:44:13.138Z,99213.44
2023-07-24T10:46:07.124Z,99213.00
2023-07-24T10:47:53.171Z,99212.22
2023-07-24T10:49:47.064Z,99216.59
2023-07-24T10:51:35.384Z,99214.31
2023-07-24T10:53:23.341Z,99199.78
2023-07-24T10:55:11.085Z,99205.69
2023-07-24T10:57:08.364Z,99206.03
2023-07-24T10:59:01.146Z,99210.00
2023-07-24T11:00:55.198Z,99202.06
2023-07-24T11:02:41.269Z,99208.78
2023-07-24T11:04:41.179Z,99196.88
2023-07-24T11:06:34.097Z,99199.47
2023-07-24T11:08:18.822Z,99193.72
2023-07-24T11:10:24.084Z,99194.13
2023-07-24T11:12:19.350Z,99193.31
2023-07-24T11:14:13.295Z,99184.78
2023-07-24T11:15:59.113Z,99184.53
2023-07-24T11:17:45.902Z,99188.69
2023-07-24T11:19:39.165Z,99182.34
2023-07-24T11:21:26.394Z,99185.06
2023-07-24T11:23:19.341Z,99177.06
2023-07-24T11:25:05.192Z,99169.81
2023-07-24T11:26:53.313Z,99170.69
2023-07-24T11:28:48.156Z,99174.47
2023-07-24T11:30:34.413Z,99173.88
2023-07-24T11:32:27.195Z,99164.72
2023-07-24T11:34:14.416Z,99168.06
2023-07-24T11:36:00.606Z,99164.34
2023-07-24T11:37:47.142Z,99159.56
2023-07-24T11:39:33.531Z,99156.13
2023-07-24T11:41:14.350Z,99152.47
2023-07-24T11:43:02.173Z,99158.34
2023-07-24T11:44:42.608Z,99147.50
2023-07-24T11:46:38.285Z,99156.06
2023-07-24T11:48:24.528Z,99147.91
2023-07-24T11:50:10.920Z,99155.44
2023-07-24T11:51:59.170Z,99146.06
2023-07-24T11:53:40.418Z,99148.84
2023-07-24T11:55:41.258Z,99138.97
2023-07-24T11:57:30.168Z,99135.81
2023-07-24T11:59:31.147Z,99134.41
2023-07-24T12:01:25.432Z,99129.38
2023-07-24T12:03:11.539Z,99135.09
2023-07-24T12:05:06.110Z,99130.78
2023-07-24T12:06:54.290Z,99130.22
2023-07-24T12:08:41.361Z,99136.72
2023-07-24T12:10:42.152Z,99125.13
2023-07-24T12:12:53.339Z,99128.91
2023-07-24T12:14:55.160Z,99111.50
2023-07-24T12:16:42.147Z,99122.19
2023-07-24T12:18:35.352Z,99124.59
2023-07-24T12:20:28.153Z,99125.41
2023-07-24T12:22:13.377Z,99124.19
2023-07-24T12:24:06.436Z,99126.22
2023-07-24T12:26:00.188Z,99122.38
2023-07-24T12:28:00.171Z,99130.56
2023-07-24T12:30:01.529Z,99118.09
2023-07-24T12:31:55.217Z,99115.88
2023-07-24T12:33:41.392Z,99118.41
2023-07-24T12:35:27.448Z,99114.31
2023-07-24T12:37:20.265Z,99097.22
2023-07-24T12:39:06.979Z,99094.03
2023-07-24T12:40:54.751Z,99103.91
2023-07-24T12:42:40.352Z,99094.28
2023-07-24T12:44:27.290Z,99098.28
2023-07-24T12:46:22.351Z,99106.13
2023-07-24T12:48:09.100Z,99096.78
2023-07-24T12:50:07.432Z,99092.50
2023-07-24T12:51:55.537Z,99087.94
2023-07-24T12:53:55.076Z,99094.06
2023-07-24T12:55:42.131Z,99075.06
2023-07-24T12:57:36.263Z,99095.09
2023-07-24T12:59:29.221Z,99092.03
2023-07-24T13:01:24.283Z,99094.41
2023-07-24T13:03:24.553Z,99096.75
2023-07-24T13:05:10.212Z,99081.91
2023-07-24T13:07:03.269Z,99072.47
2023-07-24T13:08:56.557Z,99075.94
2023-07-24T13:10:36.460Z,99071.19
2023-07-24T13:12:22.943Z,99077.09
2023-07-24T13:14:08.536Z,99069.66
2023-07-24T13:16:01.266Z,99066.22
2023-07-24T13:17:57.304Z,99062.81
2023-07-24T13:19:44.706Z,99066.59
2023-07-24T13:21:30.301Z,99059.22
2023-07-24T13:23:19.128Z,99064.38
2023-07-24T13:25:12.433Z,99064.38
2023-07-24T13:26:51.973Z,99062.19
2023-07-24T13:28:37.459Z,99062.19
2023-07-24T13:30:25.592Z,99049.63
2023-07-24T13:32:25.306Z,99052.25
2023-07-24T13:34:13.473Z,99052.16
2023-07-24T13:36:05.353Z,99051.72
2023-07-24T13:37:45.005Z,99049.44
2023-07-24T13:39:32.752Z,99046.88
2023-07-24T13:41:18.528Z,99049.50
2023-07-24T13:43:06.293Z,99042.03
2023-07-24T13:44:53.052Z,99045.00
2023-07-24T13:46:40.651Z,99037.97
2023-07-24T13:48:19.346Z,99035.34
2023-07-24T13:50:14.297Z,99031.56
2023-07-24T13:52:07.467Z,99035.84
2023-07-24T13:53:55.111Z,99031.91
2023-07-24T13:55:48.275Z,99032.97
2023-07-24T13:57:41.599Z,99029.00
2023-07-24T13:59:41.292Z,99031.91
2023-07-24T14:01:27.438Z,99013.16
2023-07-24T14:03:20.381Z,99022.31
2023-07-24T14:05:16.253Z,99015.13
2023-07-24T14:06:55.476Z,99023.28
2023-07-24T14:08:48.516Z,99012.81
2023-07-24T14:10:27.768Z,99012.03
2023-07-24T14:12:14.047Z,99007.09
2023-07-24T14:14:00.623Z,99010.72
2023-07-24T14:15:40.560Z,99002.44
2023-07-24T14:17:26.106Z,99002.63
2023-07-24T14:19:12.664Z,98999.53
2023-07-24T14:20:56.431Z,98999.97
2023-07-24T14:22:48.331Z,99001.22
2023-07-24T14:24:34.849Z,98994.44
2023-07-24T14:26:14.183Z,98991.72
2023-07-24T14:28:00.312Z,99000.16
2023-07-24T14:29:39.770Z,98994.81
2023-07-24T14:31:32.589Z,98982.66
2023-07-24T14:33:32.370Z,98993.13
2023-07-24T14:35:24.715Z,98988.56
2023-07-24T14:37:12.490Z,98984.06
2023-07-24T14:39:05.345Z,98984.41
2023-07-24T14:40:51.687Z,98983.97
2023-07-24T14:42:37.205Z,98976.41
2023-07-24T14:44:24.311Z,98977.28
2023-07-24T14:46:16.668Z,98976.91
2023-07-24T14:47:56.438Z,98974.94
2023-07-24T14:49:42.533Z,98977.59
2023-07-24T14:51:27.469Z,98978.28
2023-07-24T14:53:15.671Z,98973.81
2023-07-24T14:55:08.350Z,98970.94
2023-07-24T14:56:59.566Z,98968.06
2023-07-24T14:58:54.619Z,98975.91
2023-07-24T15:00:47.718Z,98968.19
2023-07-24T15:02:34.507Z,98966.16
2023-07-24T15:04:19.381Z,98964.59
2023-07-24T15:06:07.645Z,98973.13
2023-07-24T15:08:00.592Z,98966.88
2023-07-24T15:09:55.327Z,98966.16
2023-07-24T15:11:41.499Z,98957.56
2023-07-24T15:13:34.509Z,98970.41
2023-07-24T15:15:34.408Z,98964.53
2023-07-24T15:17:27.645Z,98963.81
2023-07-24T15:19:21.443Z,98966.09
2023-07-24T15:21:08.363Z,98962.84
2023-07-24T15:23:01.486Z,98959.06
2023-07-24T15:24:56.412Z,98967.56
2023-07-24T15:26:49.480Z,98962.22
2023-07-24T15:28:35.957Z,98962.22
2023-07-24T15:30:21.417Z,98964.50
2023-07-24T15:32:14.410Z,98966.31
2023-07-24T15:34:00.394Z,98956.75
2023-07-24T15:35:46.632Z,98961.38
2023-07-24T15:37:31.392Z,98963.75
2023-07-24T15:39:18.340Z,98964.09
2023-07-24T15:41:06.572Z,98957.41
2023-07-24T15:42:52.350Z,98957.09
2023-07-24T15:44:32.423Z,98967.00
2023-07-24T15:46:25.506Z,98955.31
2023-07-24T15:48:22.944Z,98959.88
2023-07-24T15:50:13.919Z,98959.69
2023-07-24T15:51:52.459Z,98951.06
2023-07-24T15:53:39.435Z,98958.78
2023-07-24T15:55:24.429Z,98947.81
2023-07-24T15:57:12.902Z,98950.88
2023-07-24T15:59:06.468Z,98948.84
2023-07-24T16:00:46.348Z,98945.69
2023-07-24T16:02:32.724Z,98951.56
2023-07-24T16:04:20.357Z,98946.47
2023-07-24T16:06:23.657Z,98944.34
2023-07-24T16:08:17.372Z,98946.63
2023-07-24T16:10:03.667Z,98947.28
2023-07-24T16:11:50.551Z,98950.38
2023-07-24T16:13:37.635Z,98950.38
2023-07-24T16:17:12.587Z,98946.25
2023-07-24T16:19:19.641Z,98956.81
2023-07-24T16:21:12.414Z,98947.63
2023-07-24T16:23:05.649Z,98937.44
2023-07-24T16:24:58.445Z,98939.63
2023-07-24T16:26:44.649Z,98937.13
2023-07-24T16:28:31.610Z,98933.72
2023-07-24T16:30:21.856Z,98918.13
2023-07-24T16:32:16.437Z,98934.75
2023-07-24T16:34:09.624Z,98936.22
2023-07-24T16:35:55.487Z,98934.88
2023-07-24T16:37:55.528Z,98931.72
2023-07-24T16:39:48.549Z,98937.16
2023-07-24T16:41:40.459Z,98934.19
2023-07-24T16:43:40.486Z,98933.28
2023-07-24T16:45:36.707Z,98938.94
2023-07-24T16:47:24.503Z,98937.13
2023-07-24T16:49:06.176Z,98933.06
2023-07-24T16:50:51.824Z,98937.81
2023-07-24T16:52:37.712Z,98936.22
2023-07-24T16:54:31.475Z,98934.97
2023-07-24T16:56:16.877Z,98933.72
2023-07-24T16:58:09.482Z,98936.00
2023-07-24T16:59:56.103Z,98931.94
2023-07-24T17:01:43.935Z,98932.59
2023-07-24T17:03:28.599Z,98923.75
2023-07-24T17:05:22.536Z,98935.28
2023-07-24T17:07:22.775Z,98929.84
2023-07-24T17:09:09.220Z,98929.16
2023-07-24T17:11:03.514Z,98936.28
2023-07-24T17:13:03.577Z,98933.34
2023-07-24T17:14:56.573Z,98935.22
2023-07-24T17:16:42.765Z,98929.75
2023-07-24T17:18:37.617Z,98926.00
2023-07-24T17:20:24.533Z,98929.44
2023-07-24T17:22:24.495Z,98926.47
2023-07-24T17:24:11.630Z,98937.25
2023-07-24T17:26:04.565Z,98936.53
2023-07-24T17:28:03.498Z,98939.66
2023-07-24T17:29:56.774Z,98928.06
2023-07-24T17:31:44.099Z,98928.13
2023-07-24T17:33:45.541Z,98924.81
2023-07-24T17:35:34.066Z,98929.81
2023-07-24T17:37:36.579Z,98935.81
2023-07-24T17:39:24.490Z,98932.66
2023-07-24T17:41:05.498Z,98930.47
2023-07-24T17:42:58.504Z,98938.94
2023-07-24T17:44:52.565Z,98943.06
2023-07-24T17:46:37.804Z,98942.78
2023-07-24T17:48:24.357Z,98951.91
2023-07-24T17:50:20.553Z,98948.22
2023-07-24T17:52:13.745Z,98949.47
2023-07-24T17:53:59.551Z,98957.78
2023-07-24T17:55:53.595Z,98954.41
2023-07-24T17:57:40.626Z,98963.47
2023-07-24T17:59:32.486Z,98966.97
2023-07-24T18:01:19.556Z,98967.75
2023-07-24T18:03:06.208Z,98972.78
2023-07-24T18:04:46.279Z,98977.97
2023-07-24T18:06:33.608Z,98982.75
2023-07-24T18:08:26.707Z,98987.78
2023-07-24T18:10:12.571Z,98984.41
2023-07-24T18:11:59.793Z,98984.97
2023-07-24T18:13:53.874Z,98979.50
2023-07-24T18:15:40.532Z,98989.13
2023-07-24T18:17:32.615Z,98988.50
2023-07-24T18:19:25.823Z,99002.91
2023-07-24T18:21:08.538Z,99014.13
2023-07-24T18:22:55.895Z,99010.84
2023-07-24T18:24:42.851Z,99014.88
2023-07-24T18:26:35.590Z,99022.91
2023-07-24T18:28:21.802Z,99016.16
2023-07-24T18:30:06.759Z,99013.47
2023-07-24T18:31:52.830Z,99019.97
2023-07-24T18:33:52.541Z,99021.16
2023-07-24T18:35:44.805Z,99010.78
2023-07-24T18:37:30.787Z,99012.19
2023-07-24T18:39:24.614Z,99016.19
2023-07-24T18:41:12.102Z,99022.22
2023-07-24T18:43:03.554Z,99016.53
2023-07-24T18:44:49.798Z,99021.69
2023-07-24T18:46:42.802Z,99031.50
2023-07-24T18:48:35.659Z,99039.34
2023-07-24T18:50:15.427Z,99040.53
2023-07-24T18:52:02.146Z,99050.06
2023-07-24T18:53:47.600Z,99048.22
2023-07-24T18:55:34.649Z,99047.44
2023-07-24T18:57:28.817Z,99047.81
2023-07-24T18:59:22.576Z,99052.44
2023-07-24T19:01:15.705Z,99053.69
2023-07-24T19:03:03.010Z,99050.84
2023-07-24T19:04:54.563Z,99060.81
2023-07-24T19:06:41.646Z,99048.59
2023-07-24T19:08:35.899Z,99051.25
2023-07-24T19:10:14.395Z,99047.44
2023-07-24T19:12:09.646Z,99045.53
2023-07-24T19:14:09.846Z,99042.13
2023-07-24T19:15:56.408Z,99043.03
2023-07-24T19:17:50.629Z,99039.97
2023-07-24T19:19:39.268Z,99038.19
2023-07-24T19:21:30.908Z,99040.72
2023-07-24T19:23:30.577Z,99049.66
2023-07-24T19:25:23.668Z,99043.88
2023-07-24T19:27:11.872Z,99046.59
2023-07-24T19:28:56.706Z,99050.66
2023-07-24T19:30:49.757Z,99040.72
2023-07-24T19:32:45.209Z,99044.44
2023-07-24T19:34:38.640Z,99049.00
2023-07-24T19:36:24.987Z,99049.28
2023-07-24T19:38:12.024Z,99041.34
2023-07-24T19:39:58.700Z,99037.91
2023-07-24T19:41:51.805Z,99035.34
2023-07-24T19:43:33.358Z,99044.00
2023-07-24T19:45:17.909Z,99040.78
2023-07-24T19:47:03.673Z,99043.41
2023-07-24T19:48:57.701Z,99037.53
2023-07-24T19:50:42.873Z,99051.72
2023-07-24T19:52:38.860Z,99035.44
2023-07-24T19:54:32.634Z,99052.84
2023-07-24T19:56:25.644Z,99055.56
2023-07-24T19:58:26.502Z,99044.38
2023-07-24T20:00:13.277Z,99054.50
2023-07-24T20:01:57.696Z,99048.63
2023-07-24T20:03:38.137Z,99048.13
2023-07-24T20:05:30.647Z,99051.66
2023-07-24T20:07:16.657Z,99047.66
2023-07-24T20:09:02.498Z,99044.47
2023-07-24T20:10:57.721Z,99047.94
2023-07-24T20:12:50.957Z,99046.09
2023-07-24T20:14:37.231Z,99042.41
2023-07-24T20:16:30.802Z,99031.22
2023-07-24T20:18:24.064Z,99031.25
2023-07-24T20:20:16.643Z,99032.84
2023-07-24T20:22:02.981Z,99036.88
2023-07-24T20:23:43.127Z,99045.72
2023-07-24T20:25:27.751Z,99049.75
2023-07-24T20:27:14.887Z,99051.09
2023-07-24T20:29:06.921Z,99046.78
2023-07-24T20:30:53.726Z,99048.94
2023-07-24T20:32:54.726Z,99057.22
2023-07-24T20:34:41.734Z,99052.69
2023-07-24T20:36:33.679Z,99052.69
2023-07-24T20:38:30.988Z,99048.66
2023-07-24T20:40:17.954Z,99053.72
2023-07-24T20:42:04.660Z,99057.50
2023-07-24T20:43:50.979Z,99050.53
2023-07-24T20:45:37.060Z,99058.81
2023-07-24T20:47:16.487Z,99058.59
2023-07-24T20:49:11.655Z,99059.66
2023-07-24T20:50:59.029Z,99054.88
2023-07-24T20:52:43.959Z,99045.53
2023-07-24T20:54:36.756Z,99042.09
2023-07-24T20:56:15.992Z,99049.31
2023-07-24T20:58:01.775Z,99049.06
2023-07-24T20:59:48.441Z,99048.00
2023-07-24T21:01:42.185Z,99053.38
2023-07-24T21:03:27.738Z,99046.72
2023-07-24T21:05:16.965Z,99047.00
2023-07-24T21:07:03.008Z,99051.81
2023-07-24T21:08:55.769Z,99044.28
2023-07-24T21:10:55.700Z,99041.63
2023-07-24T21:12:43.888Z,99040.31
2023-07-24T21:14:35.780Z,99038.69
2023-07-24T21:16:16.179Z,99028.81
2023-07-24T21:18:08.846Z,99036.84
2023-07-24T21:20:01.745Z,99037.38
2023-07-24T21:21:48.930Z,99045.41
2023-07-24T21:23:41.888Z,99048.34
2023-07-24T21:25:26.926Z,99044.88
2023-07-24T21:27:13.772Z,99036.88
2023-07-24T21:28:59.771Z,99036.84
2023-07-24T21:30:52.813Z,99030.97
2023-07-24T21:32:44.799Z,99022.66
2023-07-24T21:34:45.988Z,99011.72
2023-07-24T21:36:32.547Z,99007.47
2023-07-24T21:38:27.790Z,98996.22
2023-07-24T21:40:13.666Z,98998.34
2023-07-24T21:42:06.809Z,99003.13
2023-07-24T21:43:59.739Z,98998.84
2023-07-24T21:45:45.963Z,99003.66
2023-07-24T21:47:31.516Z,98983.09
2023-07-24T21:49:18.932Z,98977.47
2023-07-24T21:51:05.173Z,98978.56
2023-07-24T21:52:56.750Z,98973.22
2023-07-24T21:54:44.754Z,98971.06
2023-07-24T21:56:37.918Z,98968.38
2023-07-24T21:58:23.964Z,98964.66
2023-07-24T22:00:04.605Z,98964.94
2023-07-24T22:01:55.176Z,98961.47
2023-07-24T22:03:39.981Z,98953.94
2023-07-24T22:05:26.899Z,98947.97
2023-07-24T22:07:13.948Z,98945.78
2023-07-24T22:08:54.045Z,98949.28
2023-07-24T22:10:41.196Z,98943.16
2023-07-24T22:12:26.901Z,98948.19
2023-07-24T22:14:19.811Z,98942.88
2023-07-24T22:15:59.820Z,98939.41
2023-07-24T22:17:47.314Z,98938.59
2023-07-24T22:19:32.778Z,98930.88
2023-07-24T22:21:17.815Z,98922.88
2023-07-24T22:23:04.245Z,98931.47
2023-07-24T22:24:57.925Z,98929.59
2023-07-24T22:26:52.854Z,98923.19
2023-07-24T22:28:47.016Z,98925.59
2023-07-24T22:30:26.025Z,98922.94
2023-07-24T22:32:12.743Z,98923.69
2023-07-24T22:34:06.113Z,98935.69
2023-07-24T22:36:04.826Z,98932.47
2023-07-24T22:37:57.850Z,98933.28
2023-07-24T22:39:37.129Z,98929.81
2023-07-24T22:41:30.131Z,98934.59
2023-07-24T22:43:16.971Z,98929.28
2023-07-24T22:45:09.963Z,98914.84
2023-07-24T22:47:02.932Z,98917.81
2023-07-24T22:48:43.073Z,98920.16
2023-07-24T22:50:36.051Z,98925.50
2023-07-24T22:52:21.788Z,98933.50
2023-07-24T22:54:08.604Z,98923.91
2023-07-24T22:56:01.981Z,98928.19
2023-07-24T22:57:48.677Z,98922.84
2023-07-24T22:59:43.884Z,98939.38
2023-07-24T23:01:27.123Z,98938.31
2023-07-24T23:03:13.084Z,98933.50
2023-07-24T23:04:59.843Z,98923.88
2023-07-24T23:06:45.008Z,98928.69
2023-07-24T23:08:31.046Z,98938.81
2023-07-24T23:10:10.504Z,98920.09
2023-07-24T23:11:56.949Z,98934.25
2023-07-24T23:13:37.066Z,98931.84
2023-07-24T23:15:30.898Z,98934.25
2023-07-24T23:17:17.241Z,98928.66
2023-07-24T23:19:09.845Z,98928.34
2023-07-24T23:20:56.909Z,98924.88
2023-07-24T23:22:50.152Z,98920.03
2023-07-24T23:24:36.101Z,98920.25
2023-07-24T23:26:22.922Z,98916.47
2023-07-24T23:28:09.019Z,98914.50
2023-07-24T23:29:55.030Z,98924.34
2023-07-24T23:31:35.346Z,98927.47
2023-07-24T23:33:28.175Z,98930.63
2023-07-24T23:35:20.880Z,98928.25
2023-07-24T23:37:06.862Z,98929.78
2023-07-24T23:38:53.890Z,98928.63
2023-07-24T23:40:45.873Z,98923.25
2023-07-24T23:42:32.933Z,98925.66
2023-07-24T23:44:19.178Z,98922.72
2023-07-24T23:46:17.970Z,98917.88
2023-07-24T23:48:05.932Z,98912.34
2023-07-24T23:50:06.006Z,98925.94
2023-07-24T23:51:52.599Z,98923.56
2023-07-24T23:53:45.891Z,98923.00
2023-07-24T23:55:32.829Z,98921.69
2023-07-24T23:57:25.894Z,98918.47
2023-07-24T23:59:25.900Z,98922.66
